Time;durP1;ratioP1;P1;durP2;ratioP2;P2;SDS_P1;SDS_P2;PMS_P1;PMS_P2;Temp;Humidity;BMP_temperature;BMP_pressure;BME280_temperature;BME280_humidity;BME280_pressure;Samples;Min_cycle;Max_cycle;Signal;HPM_P1;HPM_P2
2022/07/29 00:01:19;;;;;;;3.63;2.60;;;16.10;92.50;;;;;;4979475;28;20456;-74
2022/07/29 00:03:49;;;;;;;3.67;2.90;;;16.10;92.60;;;;;;4979096;28;20479;-75
2022/07/29 00:06:18;;;;;;;3.73;2.53;;;16.10;92.70;;;;;;4996756;28;20447;-75
2022/07/29 00:08:47;;;;;;;4.40;2.50;;;16.10;92.80;;;;;;4979220;28;20427;-74
2022/07/29 00:11:15;;;;;;;4.10;2.67;;;16.10;92.80;;;;;;4996974;28;20440;-74
2022/07/29 00:13:43;;;;;;;4.80;2.80;;;16.00;92.80;;;;;;4979686;28;20538;-74
2022/07/29 00:16:17;;;;;;;3.17;2.20;;;16.00;92.80;;;;;;4996992;28;20425;-74
2022/07/29 00:18:46;;;;;;;3.40;2.80;;;16.00;92.90;;;;;;4996454;28;20415;-74
2022/07/29 00:21:16;;;;;;;3.67;2.40;;;15.90;92.90;;;;;;4996729;28;20548;-75
2022/07/29 00:23:44;;;;;;;4.20;2.30;;;16.00;93.00;;;;;;4978839;28;20501;-74
2022/07/29 00:26:12;;;;;;;3.20;2.60;;;15.90;93.00;;;;;;4996694;28;20885;-74
2022/07/29 00:28:41;;;;;;;2.97;2.60;;;15.90;93.10;;;;;;4996398;28;20415;-74
2022/07/29 00:31:09;;;;;;;3.73;2.70;;;15.80;93.30;;;;;;4978834;28;20845;-74
2022/07/29 00:33:37;;;;;;;5.63;2.60;;;15.80;93.10;;;;;;4996193;28;20435;-74
2022/07/29 00:36:04;;;;;;;7.40;3.03;;;15.80;93.20;;;;;;4996420;28;20423;-74
2022/07/29 00:38:34;;;;;;;3.93;2.90;;;15.80;93.20;;;;;;4996222;28;20934;-74
2022/07/29 00:41:02;;;;;;;2.93;2.47;;;15.80;93.20;;;;;;4996245;28;20749;-74
2022/07/29 00:43:30;;;;;;;4.53;2.63;;;15.80;93.30;;;;;;4996218;28;20477;-74
2022/07/29 00:45:58;;;;;;;3.30;2.43;;;15.80;93.30;;;;;;4996309;28;20952;-75
2022/07/29 00:48:27;;;;;;;3.00;2.60;;;15.80;93.40;;;;;;4996016;28;20515;-75
2022/07/29 00:50:56;;;;;;;4.30;3.13;;;15.80;93.40;;;;;;4978423;28;20928;-76
2022/07/29 00:53:27;;;;;;;5.03;2.70;;;15.80;93.70;;;;;;4995729;28;20436;-74
2022/07/29 00:55:56;;;;;;;4.93;3.10;;;15.80;93.50;;;;;;4996072;28;20845;-75
2022/07/29 00:58:27;;;;;;;4.70;2.93;;;15.70;93.50;;;;;;4995744;28;20445;-75
2022/07/29 01:00:55;;;;;;;4.80;3.00;;;15.70;93.50;;;;;;4978262;28;20547;-75
2022/07/29 01:03:24;;;;;;;3.87;2.57;;;15.70;93.60;;;;;;4978135;28;20499;-74
2022/07/29 01:05:52;;;;;;;4.20;3.03;;;15.70;93.60;;;;;;4995698;28;20927;-75
2022/07/29 01:08:21;;;;;;;3.07;2.77;;;15.70;93.70;;;;;;4978207;28;20449;-75
2022/07/29 01:10:51;;;;;;;3.60;2.73;;;15.70;93.70;;;;;;4995831;28;20440;-75
2022/07/29 01:13:22;;;;;;;6.33;2.87;;;15.70;93.70;;;;;;4995488;28;20515;-75
2022/07/29 01:15:56;;;;;;;4.53;3.10;;;15.60;93.80;;;;;;4978027;28;20535;-75
2022/07/29 01:18:31;;;;;;;3.40;2.43;;;15.60;93.80;;;;;;4995697;28;20969;-75
2022/07/29 01:21:31;;;;;;;3.20;2.67;;;15.60;93.90;;;;;;4995651;28;20421;-75
2022/07/29 01:24:25;;;;;;;5.90;2.93;;;15.60;93.90;;;;;;4995196;28;20473;-75
2022/07/29 01:27:00;;;;;;;4.10;2.63;;;15.50;93.90;;;;;;4977799;28;20428;-75
2022/07/29 01:29:33;;;;;;;4.90;2.90;;;15.50;94.00;;;;;;4995487;28;20414;-75
2022/07/29 01:32:09;;;;;;;4.30;2.53;;;15.50;94.00;;;;;;4978064;28;20436;-75
2022/07/29 01:35:02;;;;;;;3.87;3.00;;;15.50;94.00;;;;;;4999561;28;20425;-74
2022/07/29 01:37:38;;;;;;;4.87;2.50;;;15.50;94.10;;;;;;5001242;28;20419;-74
2022/07/29 01:40:12;;;;;;;5.53;3.13;;;15.50;94.10;;;;;;5002215;28;20430;-74
2022/07/29 01:42:47;;;;;;;3.70;2.87;;;15.50;94.20;;;;;;4984629;28;20474;-75
2022/07/29 01:45:22;;;;;;;4.77;2.53;;;15.40;94.20;;;;;;4985070;28;20468;-74
2022/07/29 01:47:59;;;;;;;4.07;2.90;;;15.40;94.20;;;;;;5002232;28;20830;-74
2022/07/29 01:50:34;;;;;;;4.20;2.63;;;15.40;94.30;;;;;;4998236;28;20431;-74
2022/07/29 01:53:05;;;;;;;4.97;2.77;;;15.40;94.30;;;;;;4994948;28;20435;-75
2022/07/29 01:55:37;;;;;;;3.40;2.67;;;15.40;94.30;;;;;;4995121;28;20459;-75
2022/07/29 01:58:07;;;;;;;5.17;3.23;;;15.30;94.30;;;;;;4995308;28;20388;-75
2022/07/29 02:00:38;;;;;;;3.43;2.30;;;15.30;94.30;;;;;;4977365;28;20820;-76
2022/07/29 02:03:13;;;;;;;3.70;2.83;;;15.30;94.40;;;;;;4976905;28;20439;-75
2022/07/29 02:05:44;;;;;;;4.23;2.70;;;15.30;94.40;;;;;;4994547;28;20559;-75
2022/07/29 02:08:14;;;;;;;6.43;3.40;;;15.30;94.40;;;;;;4977211;28;20437;-75
2022/07/29 02:10:44;;;;;;;4.03;2.90;;;15.30;94.40;;;;;;4994991;28;20483;-75
2022/07/29 02:13:14;;;;;;;3.50;2.30;;;15.30;94.50;;;;;;4994826;28;20986;-75
2022/07/29 02:15:45;;;;;;;2.50;2.20;;;15.30;94.50;;;;;;4994954;28;20435;-75
2022/07/29 02:18:18;;;;;;;2.67;2.00;;;15.30;94.50;;;;;;4976929;28;20441;-75
2022/07/29 02:20:51;;;;;;;4.80;2.73;;;15.30;94.60;;;;;;4994647;28;20421;-75
2022/07/29 02:23:21;;;;;;;4.83;2.70;;;15.20;94.60;;;;;;4994422;28;20491;-75
2022/07/29 02:25:52;;;;;;;8.10;3.10;;;15.30;94.60;;;;;;4994458;28;20547;-75
2022/07/29 02:28:23;;;;;;;3.30;2.27;;;15.20;94.60;;;;;;4994550;28;20417;-75
2022/07/29 02:30:54;;;;;;;3.80;2.80;;;15.20;94.60;;;;;;4994766;28;20824;-75
2022/07/29 02:33:24;;;;;;;3.57;2.77;;;15.20;94.60;;;;;;4994729;28;20491;-75
2022/07/29 02:35:53;;;;;;;3.33;2.40;;;15.30;94.70;;;;;;4994378;28;20425;-75
2022/07/29 02:41:12;;;;;;;4.93;2.83;;;15.20;95.00;;;;;;4994307;28;20874;-75
2022/07/29 02:43:41;;;;;;;6.07;3.27;;;15.20;94.70;;;;;;4976575;28;20542;-75
2022/07/29 02:46:16;;;;;;;4.83;2.60;;;15.20;94.70;;;;;;4993905;28;20453;-75
2022/07/29 02:49:01;;;;;;;3.53;2.30;;;15.20;94.80;;;;;;4994232;28;20424;-75
2022/07/29 02:51:35;;;;;;;4.20;2.90;;;15.20;94.80;;;;;;4993982;28;20508;-75
2022/07/29 02:54:17;;;;;;;3.70;2.77;;;15.20;94.80;;;;;;4993941;28;20540;-75
2022/07/29 02:56:47;;;;;;;3.23;2.53;;;15.20;94.90;;;;;;4993959;28;20404;-75
2022/07/29 02:59:22;;;;;;;3.67;2.60;;;15.20;94.90;;;;;;4993799;28;20436;-75
2022/07/29 03:01:53;;;;;;;7.93;3.03;;;15.20;94.90;;;;;;4993886;28;20547;-75
2022/07/29 03:04:23;;;;;;;6.37;2.83;;;15.10;94.90;;;;;;4992468;28;20521;-75
2022/07/29 03:06:53;;;;;;;3.10;2.43;;;15.10;94.90;;;;;;4994057;28;20809;-75
2022/07/29 03:09:22;;;;;;;4.27;2.80;;;15.10;95.00;;;;;;4994097;28;20810;-75
2022/07/29 03:11:51;;;;;;;5.23;2.80;;;15.10;95.00;;;;;;4976265;28;20950;-75
2022/07/29 03:14:19;;;;;;;3.83;2.50;;;15.10;95.00;;;;;;4993667;28;20563;-75
2022/07/29 03:16:51;;;;;;;2.90;2.50;;;15.10;95.10;;;;;;4997370;28;20413;-75
2022/07/29 03:19:21;;;;;;;4.57;2.63;;;15.10;95.10;;;;;;4980152;28;20499;-75
2022/07/29 03:21:49;;;;;;;3.93;2.90;;;15.20;95.10;;;;;;4997567;28;20453;-75
2022/07/29 03:24:28;;;;;;;3.30;2.70;;;15.20;95.20;;;;;;4979932;28;20540;-75
2022/07/29 03:26:57;;;;;;;3.67;3.20;;;15.10;95.20;;;;;;4998052;28;20403;-75
2022/07/29 03:29:26;;;;;;;5.80;3.10;;;15.10;95.20;;;;;;4979952;28;20463;-74
2022/07/29 03:32:04;;;;;;;4.27;2.93;;;15.10;95.20;;;;;;4997356;28;20938;-75
2022/07/29 03:34:37;;;;;;;4.43;2.80;;;15.10;95.30;;;;;;4997603;28;20424;-75
2022/07/29 03:37:06;;;;;;;5.00;2.80;;;15.10;95.30;;;;;;4997635;28;20937;-75
2022/07/29 03:39:41;;;;;;;4.23;2.90;;;15.10;95.40;;;;;;4997684;28;20470;-75
2022/07/29 03:42:12;;;;;;;5.30;3.90;;;15.10;95.50;;;;;;4997548;28;20395;-75
2022/07/29 03:44:43;;;;;;;4.53;2.80;;;15.00;95.50;;;;;;4997498;28;20471;-75
2022/07/29 03:47:15;;;;;;;5.70;3.80;;;15.10;95.50;;;;;;4979730;28;20444;-75
2022/07/29 03:49:45;;;;;;;2.90;2.60;;;15.00;95.80;;;;;;4979688;28;21020;-75
2022/07/29 03:52:14;;;;;;;5.20;3.33;;;15.00;95.60;;;;;;4997282;28;20435;-75
2022/07/29 03:54:42;;;;;;;3.10;2.80;;;15.00;95.60;;;;;;4997221;28;20838;-76
2022/07/29 03:57:12;;;;;;;4.03;2.60;;;15.00;95.70;;;;;;4995772;28;20844;-76
2022/07/29 03:59:41;;;;;;;4.57;2.83;;;15.00;95.70;;;;;;4979446;28;20455;-76
2022/07/29 04:02:12;;;;;;;4.57;2.90;;;15.00;95.80;;;;;;4996657;28;20521;-76
2022/07/29 04:04:44;;;;;;;4.53;2.93;;;15.00;95.80;;;;;;4996765;28;20399;-76
2022/07/29 04:07:13;;;;;;;4.27;3.00;;;15.00;95.80;;;;;;4996765;28;20511;-76
2022/07/29 04:09:42;;;;;;;8.30;3.60;;;15.00;95.80;;;;;;4996727;28;20965;-76
2022/07/29 04:12:10;;;;;;;5.00;3.40;;;15.00;95.90;;;;;;4979186;28;20502;-76
2022/07/29 04:14:38;;;;;;;6.17;3.73;;;15.00;96.00;;;;;;4997014;28;20514;-76
2022/07/29 04:17:07;;;;;;;5.80;2.83;;;15.00;96.00;;;;;;4979123;28;20449;-76
2022/07/29 04:19:35;;;;;;;4.40;3.03;;;15.00;96.00;;;;;;4996823;28;20536;-76
2022/07/29 04:22:05;;;;;;;3.50;2.90;;;15.00;96.10;;;;;;4996734;28;20438;-76
2022/07/29 04:24:33;;;;;;;7.27;3.60;;;14.90;96.10;;;;;;4996345;28;21012;-76
2022/07/29 04:27:01;;;;;;;4.50;3.27;;;15.00;96.20;;;;;;4995961;28;20523;-76
2022/07/29 04:29:29;;;;;;;4.40;2.70;;;15.00;96.20;;;;;;4979071;28;20419;-76
2022/07/29 04:31:57;;;;;;;3.87;3.20;;;14.90;96.20;;;;;;4996414;28;20437;-76
2022/07/29 04:34:25;;;;;;;4.23;3.40;;;15.00;96.30;;;;;;4996302;28;20456;-76
2022/07/29 04:36:55;;;;;;;4.60;3.13;;;15.00;96.30;;;;;;4996589;28;20503;-76
2022/07/29 04:39:25;;;;;;;4.03;3.23;;;15.00;96.30;;;;;;4996218;28;20450;-76
2022/07/29 04:41:56;;;;;;;7.20;3.67;;;15.00;96.40;;;;;;4996251;28;20467;-76
2022/07/29 04:44:26;;;;;;;5.13;3.47;;;15.00;96.40;;;;;;4996392;28;20436;-76
2022/07/29 04:46:56;;;;;;;8.43;3.67;;;15.00;96.50;;;;;;4978533;28;20897;-76
2022/07/29 04:49:25;;;;;;;5.47;3.30;;;15.00;96.50;;;;;;4996349;28;20454;-76
2022/07/29 04:51:54;;;;;;;4.53;3.60;;;15.00;96.60;;;;;;4996317;28;20441;-76
2022/07/29 04:54:23;;;;;;;3.73;3.20;;;15.00;96.60;;;;;;4978530;28;20460;-76
2022/07/29 04:56:53;;;;;;;4.50;3.43;;;15.00;96.60;;;;;;4995858;28;20427;-76
2022/07/29 04:59:22;;;;;;;5.70;4.33;;;15.00;96.60;;;;;;4995895;28;20458;-76
2022/07/29 05:01:50;;;;;;;5.47;3.23;;;15.00;96.70;;;;;;4995654;28;20924;-76
2022/07/29 05:04:18;;;;;;;5.10;3.37;;;15.00;96.70;;;;;;4978320;28;20543;-76
2022/07/29 05:06:47;;;;;;;5.40;3.17;;;15.00;96.70;;;;;;4995874;28;20464;-76
2022/07/29 05:09:16;;;;;;;4.60;3.40;;;15.00;96.80;;;;;;4978197;28;20947;-76
2022/07/29 05:11:50;;;;;;;10.13;3.60;;;15.00;96.80;;;;;;4995864;28;20467;-76
2022/07/29 05:14:19;;;;;;;5.93;3.87;;;15.00;96.90;;;;;;4977974;28;20480;-76
2022/07/29 05:16:50;;;;;;;4.93;3.53;;;15.10;97.00;;;;;;4995900;28;20408;-77
2022/07/29 05:19:18;;;;;;;4.30;3.13;;;15.10;97.00;;;;;;4995795;28;20417;-77
2022/07/29 05:21:47;;;;;;;4.27;3.80;;;15.10;97.00;;;;;;4995755;28;20981;-78
2022/07/29 05:24:15;;;;;;;3.93;2.97;;;15.10;97.10;;;;;;4977868;28;20538;-76
2022/07/29 05:26:44;;;;;;;3.63;3.20;;;15.20;97.10;;;;;;4977682;28;20447;-77
2022/07/29 05:29:12;;;;;;;4.83;3.60;;;15.20;97.10;;;;;;4995216;28;21053;-77
2022/07/29 05:32:02;;;;;;;5.90;3.80;;;15.20;97.20;;;;;;4995208;28;20443;-77
2022/07/29 05:34:30;;;;;;;4.67;3.63;;;15.20;97.20;;;;;;4995084;28;20459;-77
2022/07/29 05:36:58;;;;;;;4.87;4.40;;;15.30;97.30;;;;;;4995352;28;20411;-77
2022/07/29 05:39:26;;;;;;;4.70;2.97;;;15.30;97.30;;;;;;4976602;28;20460;-76
2022/07/29 05:42:15;;;;;;;5.53;3.77;;;15.30;97.30;;;;;;4977535;28;20433;-77
2022/07/29 05:44:43;;;;;;;6.60;4.03;;;15.40;97.30;;;;;;4995059;28;20437;-77
2022/07/29 05:47:12;;;;;;;4.10;3.67;;;15.30;97.30;;;;;;4977405;28;20538;-77
2022/07/29 05:49:40;;;;;;;4.20;3.63;;;15.40;97.40;;;;;;4994733;28;20888;-77
2022/07/29 05:52:09;;;;;;;4.43;3.57;;;15.40;97.40;;;;;;4994790;28;20437;-77
2022/07/29 05:54:37;;;;;;;4.10;3.07;;;15.40;97.40;;;;;;4994889;28;20440;-77
2022/07/29 05:57:06;;;;;;;3.57;2.90;;;15.50;97.50;;;;;;4977632;28;20442;-77
2022/07/29 05:59:36;;;;;;;4.00;3.20;;;15.50;97.50;;;;;;4977346;28;20540;-77
2022/07/29 06:02:05;;;;;;;6.30;3.73;;;15.50;97.60;;;;;;4994844;28;20519;-77
2022/07/29 06:04:35;;;;;;;6.10;3.80;;;15.50;97.60;;;;;;4977146;28;20503;-77
2022/07/29 06:07:04;;;;;;;4.47;3.43;;;15.60;97.60;;;;;;4977203;28;20519;-77
2022/07/29 06:09:33;;;;;;;4.60;3.30;;;15.60;97.60;;;;;;4994592;28;20418;-77
2022/07/29 06:12:04;;;;;;;3.50;3.10;;;15.60;97.60;;;;;;4995079;28;20410;-77
2022/07/29 06:14:32;;;;;;;4.47;3.43;;;15.70;97.70;;;;;;4994366;28;20445;-77
2022/07/29 06:17:00;;;;;;;7.50;4.07;;;15.70;97.70;;;;;;4994638;28;20514;-77
2022/07/29 06:19:28;;;;;;;4.87;2.90;;;15.80;97.80;;;;;;4977072;28;20449;-77
2022/07/29 06:21:58;;;;;;;5.63;3.30;;;15.80;97.80;;;;;;4994616;28;20443;-77
2022/07/29 06:24:26;;;;;;;8.93;3.37;;;15.80;97.80;;;;;;4994530;28;20463;-77
2022/07/29 06:26:55;;;;;;;7.27;4.30;;;15.90;97.80;;;;;;4976945;28;20443;-76
2022/07/29 06:29:23;;;;;;;5.07;3.73;;;15.90;97.80;;;;;;4994406;28;20437;-76
2022/07/29 06:31:52;;;;;;;6.00;3.97;;;16.00;97.90;;;;;;4994454;28;20418;-76
2022/07/29 06:34:20;;;;;;;4.67;3.57;;;16.00;97.90;;;;;;4976469;28;20473;-77
2022/07/29 06:36:50;;;;;;;4.00;3.60;;;16.10;98.00;;;;;;4994248;28;20450;-78
2022/07/29 06:39:20;;;;;;;5.00;3.40;;;16.10;97.90;;;;;;4994094;28;20854;-76
2022/07/29 06:41:50;;;;;;;4.10;3.63;;;16.20;97.90;;;;;;4976646;28;20431;-76
2022/07/29 06:44:18;;;;;;;4.97;3.70;;;16.20;97.90;;;;;;4976559;28;20584;-77
2022/07/29 06:46:48;;;;;;;3.70;3.40;;;16.30;97.90;;;;;;4976655;28;20468;-76
2022/07/29 06:49:17;;;;;;;6.43;3.40;;;16.40;98.00;;;;;;4994190;28;20415;-76
2022/07/29 06:51:45;;;;;;;9.23;3.57;;;16.40;97.90;;;;;;4976534;28;20793;-78
2022/07/29 06:54:13;;;;;;;4.63;3.33;;;16.50;97.90;;;;;;4994374;28;20800;-77
2022/07/29 06:56:43;;;;;;;5.60;3.77;;;16.60;97.90;;;;;;4994176;28;20477;-77
2022/07/29 06:59:12;;;;;;;5.17;3.37;;;16.60;97.90;;;;;;4976711;28;20466;-77
2022/07/29 07:01:43;;;;;;;6.23;4.43;;;16.70;97.90;;;;;;4976512;28;20995;-77
2022/07/29 07:04:12;;;;;;;4.60;3.60;;;16.80;97.90;;;;;;4994423;28;20456;-77
2022/07/29 07:06:42;;;;;;;6.57;3.50;;;16.90;97.90;;;;;;4977175;28;20469;-77
2022/07/29 07:09:10;;;;;;;5.03;3.27;;;17.00;97.80;;;;;;4995392;28;20973;-78
2022/07/29 07:11:38;;;;;;;4.97;4.23;;;17.10;97.80;;;;;;4995301;28;20939;-77
2022/07/29 07:14:08;;;;;;;6.60;4.63;;;17.40;97.90;;;;;;4978002;28;20507;-77
2022/07/29 07:16:36;;;;;;;5.30;3.60;;;17.70;98.00;;;;;;4996156;28;20472;-78
2022/07/29 07:19:04;;;;;;;4.90;3.50;;;18.10;98.00;;;;;;4977422;28;20452;-78
2022/07/29 07:21:34;;;;;;;4.17;3.27;;;18.50;98.00;;;;;;4977483;28;20474;-78
2022/07/29 07:24:03;;;;;;;7.10;3.80;;;18.80;97.80;;;;;;4994416;28;20464;-78
2022/07/29 07:26:32;;;;;;;4.77;3.40;;;19.00;97.60;;;;;;4995105;28;20814;-78
2022/07/29 07:29:00;;;;;;;4.07;3.57;;;19.30;97.50;;;;;;4979127;28;20449;-79
2022/07/29 07:31:29;;;;;;;5.80;4.00;;;19.40;97.20;;;;;;4979560;28;20877;-79
2022/07/29 07:33:58;;;;;;;5.10;4.00;;;19.60;97.10;;;;;;4996653;28;20460;-79
2022/07/29 07:36:27;;;;;;;6.10;3.40;;;19.80;97.00;;;;;;4980378;28;21015;-78
2022/07/29 07:38:55;;;;;;;5.00;3.40;;;19.90;96.80;;;;;;4998049;28;20536;-80
2022/07/29 07:41:23;;;;;;;4.87;4.13;;;20.00;96.50;;;;;;4980130;28;20954;-79
2022/07/29 07:43:51;;;;;;;6.03;3.90;;;20.20;96.50;;;;;;4997938;28;20479;-79
2022/07/29 07:46:20;;;;;;;3.83;2.87;;;20.30;96.30;;;;;;4997678;28;20483;-80
2022/07/29 07:48:49;;;;;;;9.90;4.70;;;20.40;96.20;;;;;;4980478;28;20469;-79
2022/07/29 07:51:18;;;;;;;4.20;3.40;;;20.60;96.00;;;;;;4980912;28;20876;-79
2022/07/29 07:53:49;;;;;;;6.37;3.70;;;20.70;96.00;;;;;;4999526;28;20465;-79
2022/07/29 07:56:17;;;;;;;4.40;4.00;;;20.90;96.00;;;;;;4981685;28;20487;-80
2022/07/29 07:58:45;;;;;;;6.43;3.53;;;21.10;95.80;;;;;;4981051;28;20475;-80
2022/07/29 08:01:13;;;;;;;4.67;3.50;;;21.20;95.70;;;;;;4997354;28;20543;-80
2022/07/29 08:03:42;;;;;;;6.13;3.20;;;21.40;95.50;;;;;;4984061;28;20487;-80
2022/07/29 08:06:11;;;;;;;5.17;3.20;;;21.60;95.30;;;;;;4982896;28;20551;-79
2022/07/29 08:08:39;;;;;;;4.30;3.30;;;21.70;95.00;;;;;;5001430;28;20477;-80
2022/07/29 08:11:07;;;;;;;6.67;3.40;;;21.80;94.80;;;;;;4982956;28;20808;-80
2022/07/29 08:13:38;;;;;;;3.70;3.23;;;21.90;94.70;;;;;;4984076;28;20469;-79
2022/07/29 08:16:14;;;;;;;4.20;3.27;;;22.00;94.60;;;;;;5001722;28;20449;-81
2022/07/29 08:18:44;;;;;;;4.53;3.30;;;22.10;94.40;;;;;;5002555;28;20417;-79
2022/07/29 08:21:14;;;;;;;4.77;3.00;;;22.20;94.20;;;;;;4983951;28;20480;-80
2022/07/29 08:23:49;;;;;;;4.80;3.20;;;22.30;94.10;;;;;;4984301;28;20473;-80
2022/07/29 08:26:27;;;;;;;4.00;3.30;;;22.40;94.00;;;;;;5001679;28;20930;-80
2022/07/29 08:28:56;;;;;;;5.80;3.40;;;22.50;94.00;;;;;;4984240;28;21041;-81
2022/07/29 08:31:24;;;;;;;4.10;3.07;;;22.60;93.90;;;;;;5004631;28;20456;-80
2022/07/29 08:33:52;;;;;;;3.80;3.10;;;22.80;93.80;;;;;;5004262;28;20460;-81
2022/07/29 08:36:22;;;;;;;5.20;3.57;;;22.90;93.60;;;;;;5003734;28;20444;-81
2022/07/29 08:38:50;;;;;;;6.40;2.87;;;23.00;93.50;;;;;;4985923;28;20456;-80
2022/07/29 08:41:20;;;;;;;4.20;3.20;;;23.10;93.50;;;;;;4986312;28;20444;-79
2022/07/29 08:43:48;;;;;;;4.30;3.30;;;23.20;93.50;;;;;;5004581;28;20571;-80
2022/07/29 08:46:16;;;;;;;3.53;2.90;;;23.40;93.60;;;;;;4985517;28;20460;-80
2022/07/29 08:48:45;;;;;;;7.37;2.97;;;23.40;93.10;;;;;;4985571;28;20990;-80
2022/07/29 08:51:15;;;;;;;7.43;3.83;;;23.40;92.90;;;;;;5001556;28;20448;-80
2022/07/29 08:53:47;;;;;;;5.13;3.20;;;23.30;92.70;;;;;;5002129;28;20507;-80
2022/07/29 08:56:17;;;;;;;4.93;3.77;;;23.40;92.60;;;;;;5001510;28;20433;-80
2022/07/29 08:58:46;;;;;;;4.57;3.43;;;23.40;92.40;;;;;;5001603;28;20456;-80
2022/07/29 09:01:24;;;;;;;8.50;3.20;;;23.50;92.50;;;;;;4984321;28;20459;-82
2022/07/29 09:04:06;;;;;;;3.93;3.17;;;23.60;92.50;;;;;;5001921;28;20802;-80
2022/07/29 09:06:40;;;;;;;4.57;2.63;;;23.80;92.40;;;;;;5000727;28;20413;-80
2022/07/29 09:09:10;;;;;;;4.37;2.90;;;23.90;92.40;;;;;;4983599;28;20469;-80
2022/07/29 09:11:38;;;;;;;5.00;3.10;;;24.10;92.40;;;;;;5000900;28;20475;-79
2022/07/29 09:14:06;;;;;;;5.70;3.30;;;24.20;92.20;;;;;;5001934;28;20531;-80
2022/07/29 09:16:48;;;;;;;3.80;2.83;;;24.40;92.20;;;;;;5002008;28;20477;-80
2022/07/29 09:19:23;;;;;;;4.87;2.80;;;24.50;92.30;;;;;;5002227;28;20437;-80
2022/07/29 09:21:58;;;;;;;3.57;2.63;;;24.60;92.20;;;;;;4983708;28;20521;-80
2022/07/29 09:24:39;;;;;;;3.20;2.90;;;24.70;92.00;;;;;;5001308;28;20480;-80
2022/07/29 09:27:21;;;;;;;5.07;3.27;;;24.70;91.70;;;;;;4998316;28;20531;-79
2022/07/29 09:29:57;;;;;;;5.03;2.97;;;24.70;91.50;;;;;;4981598;28;20952;-80
2022/07/29 09:32:26;;;;;;;4.23;2.73;;;24.70;91.40;;;;;;4982422;28;20437;-80
2022/07/29 09:35:16;;;;;;;5.80;3.07;;;24.70;91.50;;;;;;4998090;28;20448;-79
2022/07/29 09:37:44;;;;;;;6.43;2.80;;;24.70;91.00;;;;;;4981941;28;20463;-80
2022/07/29 09:40:16;;;;;;;3.57;2.80;;;24.60;90.90;;;;;;4997259;28;20954;-79
2022/07/29 09:42:46;;;;;;;5.07;2.80;;;24.70;91.10;;;;;;4981980;28;20483;-80
2022/07/29 09:45:26;;;;;;;4.00;2.93;;;24.70;90.80;;;;;;4982239;28;20453;-80
2022/07/29 09:47:57;;;;;;;6.13;2.73;;;24.70;90.70;;;;;;4981895;28;20491;-79
2022/07/29 09:50:36;;;;;;;6.10;3.50;;;24.70;90.60;;;;;;4999041;28;20464;-79
2022/07/29 09:53:04;;;;;;;4.30;2.87;;;24.70;90.30;;;;;;4981790;28;20480;-79
2022/07/29 09:55:46;;;;;;;4.00;2.60;;;24.80;90.30;;;;;;4981118;28;20449;-79
2022/07/29 09:58:18;;;;;;;3.57;2.70;;;24.90;90.40;;;;;;4981185;28;20437;-79
2022/07/29 10:00:48;;;;;;;5.90;3.53;;;24.90;90.20;;;;;;4981279;28;20452;-80
2022/07/29 10:03:17;;;;;;;3.90;2.80;;;25.00;90.20;;;;;;4999218;28;20820;-79
2022/07/29 10:05:46;;;;;;;5.57;3.43;;;25.00;90.10;;;;;;4998633;28;20437;-79
2022/07/29 10:08:25;;;;;;;6.27;3.23;;;25.10;90.00;;;;;;4981664;28;20469;-80
2022/07/29 10:11:10;;;;;;;6.07;2.50;;;25.10;89.70;;;;;;4980699;28;20814;-79
2022/07/29 10:13:39;;;;;;;3.23;2.70;;;25.10;89.50;;;;;;4980494;28;20476;-80
2022/07/29 10:16:08;;;;;;;7.47;2.80;;;25.10;89.40;;;;;;4998487;28;20452;-79
2022/07/29 10:18:38;;;;;;;5.40;3.17;;;25.10;89.10;;;;;;4998560;28;20448;-79
2022/07/29 10:21:06;;;;;;;6.43;3.03;;;25.10;88.90;;;;;;4998790;28;20468;-79
2022/07/29 10:23:36;;;;;;;6.00;2.80;;;25.00;88.70;;;;;;4980834;28;20482;-79
2022/07/29 10:26:17;;;;;;;5.93;3.27;;;25.00;88.60;;;;;;4979987;28;20471;-79
2022/07/29 10:28:45;;;;;;;3.40;2.60;;;25.00;88.30;;;;;;4996531;28;20505;-79
2022/07/29 10:31:23;;;;;;;3.93;2.53;;;25.00;88.40;;;;;;4979999;28;20445;-79
2022/07/29 10:34:03;;;;;;;6.20;2.67;;;25.10;88.00;;;;;;4998297;28;20464;-79
2022/07/29 10:36:49;;;;;;;5.03;2.70;;;25.20;87.90;;;;;;4997723;28;20421;-80
2022/07/29 10:39:31;;;;;;;4.70;2.70;;;25.20;87.70;;;;;;4997790;28;20433;-79
2022/07/29 10:42:24;;;;;;;4.80;2.50;;;25.30;87.80;;;;;;4998350;28;20471;-81
2022/07/29 10:45:04;;;;;;;3.27;2.50;;;25.40;88.10;;;;;;4977091;28;20448;-76
2022/07/29 10:47:33;;;;;;;3.40;2.57;;;25.60;87.70;;;;;;4994407;28;20476;-76
2022/07/29 10:50:04;;;;;;;3.90;2.50;;;25.70;87.40;;;;;;4976934;28;20854;-76
2022/07/29 10:52:56;;;;;;;6.50;3.53;;;25.80;86.90;;;;;;4994059;28;20455;-78
2022/07/29 10:55:33;;;;;;;4.83;2.30;;;25.80;86.50;;;;;;4992898;28;21013;-76
2022/07/29 10:58:19;;;;;;;3.60;2.67;;;25.90;86.00;;;;;;4994421;28;20469;-76
2022/07/29 11:00:50;;;;;;;5.17;2.30;;;25.90;85.60;;;;;;4994273;28;20459;-77
2022/07/29 11:03:45;;;;;;;4.73;2.80;;;25.90;85.50;;;;;;4994453;28;20457;-77
2022/07/29 11:06:18;;;;;;;4.63;2.27;;;26.00;85.00;;;;;;4995060;28;20432;-79
2022/07/29 11:09:19;;;;;;;3.63;2.70;;;26.10;85.40;;;;;;4983194;28;20464;-79
2022/07/29 11:12:02;;;;;;;4.43;2.60;;;26.20;85.00;;;;;;5001248;28;20417;-80
2022/07/29 11:14:58;;;;;;;3.97;2.40;;;26.30;85.00;;;;;;4983165;28;20885;-80
2022/07/29 11:17:27;;;;;;;4.90;2.70;;;26.40;84.60;;;;;;5000974;28;20433;-80
2022/07/29 11:20:35;;;;;;;4.30;2.40;;;26.40;84.20;;;;;;5002637;28;20428;-81
2022/07/29 11:23:26;;;;;;;5.20;2.23;;;26.40;83.50;;;;;;4983420;28;20505;-81
2022/07/29 11:26:19;;;;;;;3.10;2.20;;;26.40;83.10;;;;;;4982756;28;20449;-80
2022/07/29 11:28:54;;;;;;;4.50;2.70;;;26.40;82.70;;;;;;4981800;28;20568;-80
2022/07/29 11:31:36;;;;;;;5.60;2.93;;;26.40;82.80;;;;;;5000005;28;20420;-80
2022/07/29 11:34:24;;;;;;;4.07;2.70;;;26.40;82.60;;;;;;4981760;28;20468;-80
2022/07/29 11:37:16;;;;;;;3.87;2.23;;;26.40;82.30;;;;;;4984265;28;20455;-80
2022/07/29 11:40:08;;;;;;;2.90;2.40;;;26.40;82.10;;;;;;4986401;28;20440;-80
2022/07/29 11:42:45;;;;;;;4.20;2.30;;;26.40;82.20;;;;;;4986169;28;20464;-81
2022/07/29 11:45:23;;;;;;;7.67;2.73;;;26.50;81.70;;;;;;5004188;28;20515;-80
2022/07/29 11:48:19;;;;;;;3.33;2.40;;;26.40;81.40;;;;;;4986410;28;20981;-80
2022/07/29 11:51:00;;;;;;;5.20;2.67;;;26.40;81.00;;;;;;4985393;28;20483;-80
2022/07/29 11:53:30;;;;;;;5.43;2.40;;;26.40;80.90;;;;;;4985782;28;20490;-80
2022/07/29 11:56:01;;;;;;;3.60;2.40;;;26.40;80.70;;;;;;4984506;28;20480;-80
2022/07/29 11:58:31;;;;;;;3.80;2.40;;;26.30;80.50;;;;;;5002529;28;20425;-80
2022/07/29 12:01:00;;;;;;;4.40;2.13;;;26.30;80.50;;;;;;5000698;28;20540;-80
2022/07/29 12:03:34;;;;;;;4.07;2.37;;;26.30;80.40;;;;;;4985586;28;20472;-80
2022/07/29 12:06:13;;;;;;;3.30;2.33;;;26.30;80.40;;;;;;4985710;28;20440;-80
2022/07/29 12:08:43;;;;;;;8.03;3.00;;;26.30;80.20;;;;;;4984809;28;20448;-80
2022/07/29 12:11:19;;;;;;;2.50;2.00;;;26.30;80.20;;;;;;4984454;28;20511;-80
2022/07/29 12:13:49;;;;;;;3.90;2.80;;;26.30;80.00;;;;;;4984205;28;20486;-80
2022/07/29 12:16:18;;;;;;;7.27;2.57;;;26.40;80.00;;;;;;5003109;28;20436;-80
2022/07/29 12:18:59;;;;;;;3.10;2.00;;;26.40;79.80;;;;;;4984453;28;20440;-80
2022/07/29 12:21:29;;;;;;;7.33;2.43;;;26.30;79.40;;;;;;4984203;28;20472;-80
2022/07/29 12:23:58;;;;;;;5.77;2.43;;;26.30;79.30;;;;;;4982813;28;20477;-79
2022/07/29 12:26:37;;;;;;;3.23;2.30;;;26.20;79.20;;;;;;5001062;28;20420;-79
2022/07/29 12:29:08;;;;;;;2.50;2.10;;;26.30;79.20;;;;;;5001189;28;20521;-80
2022/07/29 12:31:43;;;;;;;3.77;2.30;;;26.20;79.10;;;;;;4982912;28;20433;-80
2022/07/29 12:34:15;;;;;;;4.33;2.77;;;26.30;79.10;;;;;;5001082;28;20464;-80
2022/07/29 12:36:44;;;;;;;5.67;2.30;;;26.30;79.10;;;;;;4983286;28;20537;-79
2022/07/29 12:39:17;;;;;;;4.10;2.00;;;26.30;79.10;;;;;;5000426;28;20843;-80
2022/07/29 12:41:45;;;;;;;5.93;2.23;;;26.40;79.20;;;;;;4983834;28;20537;-80
2022/07/29 12:44:14;;;;;;;3.97;2.00;;;26.40;79.10;;;;;;5001802;28;20471;-80
2022/07/29 12:46:42;;;;;;;6.87;2.93;;;26.50;79.20;;;;;;4982583;28;20461;-80
2022/07/29 12:49:10;;;;;;;4.00;2.53;;;26.50;79.20;;;;;;4982909;28;20954;-80
2022/07/29 12:51:41;;;;;;;5.47;2.27;;;26.60;79.20;;;;;;4983169;28;20453;-80
2022/07/29 12:54:13;;;;;;;3.77;2.40;;;26.60;79.60;;;;;;4983264;28;20504;-80
2022/07/29 12:56:42;;;;;;;3.10;2.43;;;26.60;78.90;;;;;;5001029;28;20863;-80
2022/07/29 12:59:16;;;;;;;5.03;2.33;;;26.60;78.80;;;;;;4983707;28;20445;-80
2022/07/29 13:01:46;;;;;;;4.40;2.40;;;26.60;78.90;;;;;;5001822;28;20449;-80
2022/07/29 13:04:26;;;;;;;5.30;2.20;;;26.60;78.80;;;;;;4982913;28;20476;-80
2022/07/29 13:07:05;;;;;;;5.50;2.97;;;26.70;78.90;;;;;;4982725;28;20480;-80
2022/07/29 13:09:38;;;;;;;3.50;1.93;;;26.70;78.70;;;;;;5000045;28;21039;-80
2022/07/29 13:12:09;;;;;;;4.13;2.10;;;26.80;78.50;;;;;;5002020;28;20816;-80
2022/07/29 13:14:39;;;;;;;4.73;2.57;;;26.80;78.10;;;;;;5000777;28;20441;-80
2022/07/29 13:17:09;;;;;;;3.27;2.30;;;26.80;77.70;;;;;;4982791;28;20452;-80